Time;durP1;ratioP1;P1;durP2;ratioP2;P2;SDS_P1;SDS_P2;PMS_P1;PMS_P2;Temp;Humidity;BMP_temperature;BMP_pressure;BME280_temperature;BME280_humidity;BME280_pressure;Samples;Min_cycle;Max_cycle;Signal;HPM_P1;HPM_P2
2023/12/18 00:00:45;;;;;;;22.55;2.17;;;;;;;4.08;67.64;101770.47;10499309;28;20032;-67
2023/12/18 00:05:47;;;;;;;55.13;2.67;;;;;;;3.96;67.54;101761.88;10515281;28;20048;-68
2023/12/18 00:10:49;;;;;;;9.85;2.65;;;;;;;3.97;67.92;101746.34;10516373;28;20052;-68
2023/12/18 00:15:51;;;;;;;7.95;2.10;;;;;;;3.73;67.65;101749.00;10514835;28;20079;-67
2023/12/18 00:20:53;;;;;;;13.82;2.15;;;;;;;3.80;68.28;101748.94;10531299;28;20046;-68
2023/12/18 00:25:55;;;;;;;3.63;1.75;;;;;;;3.88;68.26;101745.53;10482679;28;20271;-68
2023/12/18 00:30:57;;;;;;;39.17;2.42;;;;;;;3.90;68.00;101742.06;10515006;28;20514;-68
2023/12/18 00:35:59;;;;;;;4.35;1.73;;;;;;;3.93;67.59;101736.00;10512452;28;20059;-68
2023/12/18 00:41:02;;;;;;;7.35;2.13;;;;;;;3.86;67.82;101750.72;10530736;28;20404;-67
2023/12/18 00:46:05;;;;;;;5.03;1.73;;;;;;;3.73;67.78;101760.22;10514314;28;20040;-68
2023/12/18 00:51:11;;;;;;;3.95;1.80;;;;;;;3.63;67.38;101757.63;10514813;28;20050;-68
2023/12/18 00:56:13;;;;;;;6.90;1.80;;;;;;;3.65;67.68;101723.16;10514329;28;20044;-68
2023/12/18 01:01:15;;;;;;;3.53;2.20;;;;;;;3.43;67.99;101743.88;10519337;28;20048;-68
2023/12/18 01:06:17;;;;;;;5.10;1.90;;;;;;;3.42;67.99;101745.59;10522246;28;20039;-69
2023/12/18 01:11:19;;;;;;;77.55;3.75;;;;;;;3.42;67.64;101736.97;10521511;28;20458;-68
2023/12/18 01:16:21;;;;;;;4.80;1.83;;;;;;;3.44;68.01;101728.38;10504099;28;20446;-68
2023/12/18 01:21:23;;;;;;;16.40;1.95;;;;;;;3.52;67.94;101733.50;10504565;28;20054;-68
2023/12/18 01:26:26;;;;;;;8.38;2.35;;;;;;;3.44;67.69;101736.13;10521906;28;20118;-68
2023/12/18 01:31:27;;;;;;;3.10;1.48;;;;;;;3.50;68.19;101730.06;10498993;28;20074;-68
2023/12/18 01:36:30;;;;;;;19.13;2.75;;;;;;;3.52;68.45;101733.50;10521306;28;20468;-66
2023/12/18 01:41:32;;;;;;;5.90;1.75;;;;;;;3.51;67.79;101724.91;10520753;28;20028;-66
2023/12/18 01:46:35;;;;;;;6.78;1.90;;;;;;;3.37;67.52;101736.16;10503809;28;20074;-66
2023/12/18 01:51:37;;;;;;;6.03;2.65;;;;;;;2.98;68.41;101745.66;10520310;28;20480;-66
2023/12/18 01:56:40;;;;;;;5.50;2.45;;;;;;;3.13;68.80;101743.94;10501724;28;20105;-67
2023/12/18 02:01:42;;;;;;;5.03;1.50;;;;;;;3.20;68.28;101736.16;10519947;28;20036;-67
2023/12/18 02:06:46;;;;;;;6.80;1.92;;;;;;;3.21;68.35;101735.31;10520133;28;20040;-67
2023/12/18 02:11:48;;;;;;;5.18;1.77;;;;;;;3.23;68.14;101741.34;10517923;28;20044;-69
2023/12/18 02:16:50;;;;;;;22.42;3.10;;;;;;;3.00;67.76;101749.13;10536354;27;20059;-66
2023/12/18 02:21:54;;;;;;;2.80;1.77;;;;;;;2.86;68.19;101750.84;10501859;28;20142;-67
2023/12/18 02:26:57;;;;;;;4.05;1.92;;;;;;;2.97;68.57;101736.19;10518854;28;20044;-66
2023/12/18 02:31:59;;;;;;;10.38;2.00;;;;;;;3.22;67.87;101733.56;10518531;28;20051;-67
2023/12/18 02:37:01;;;;;;;12.45;2.20;;;;;;;3.30;67.71;101739.59;10484823;28;20093;-68
2023/12/18 02:42:04;;;;;;;11.23;3.60;;;;;;;3.34;67.39;101746.47;10501139;28;20138;-68
2023/12/18 02:47:06;;;;;;;39.92;1.85;;;;;;;3.05;66.90;101744.78;10518485;28;20044;-67
2023/12/18 02:52:08;;;;;;;4.30;2.08;;;;;;;2.95;67.58;101748.25;10518657;28;20139;-66
2023/12/18 02:57:10;;;;;;;13.75;1.98;;;;;;;3.11;67.74;101743.06;10516999;28;20044;-67
2023/12/18 03:02:12;;;;;;;6.07;1.90;;;;;;;3.22;67.64;101739.59;10517812;28;20040;-67
2023/12/18 03:07:14;;;;;;;3.28;1.70;;;;;;;3.40;67.51;101741.28;10517142;28;20427;-67
2023/12/18 03:12:16;;;;;;;10.40;2.03;;;;;;;3.35;67.46;101745.63;10515683;28;20221;-66
2023/12/18 03:17:18;;;;;;;6.72;1.60;;;;;;;3.37;67.66;101742.19;10517022;28;20044;-66
2023/12/18 03:22:20;;;;;;;4.03;2.03;;;;;;;3.36;67.72;101740.44;10516482;28;20150;-66
2023/12/18 03:27:22;;;;;;;4.97;1.73;;;;;;;3.39;67.46;101740.47;10532116;28;20046;-67
2023/12/18 03:32:24;;;;;;;5.45;1.92;;;;;;;3.36;68.02;101732.69;10516976;28;20051;-68
2023/12/18 03:37:26;;;;;;;6.15;2.40;;;;;;;3.40;67.82;101730.94;10498866;28;20052;-68
2023/12/18 03:42:28;;;;;;;5.75;2.00;;;;;;;3.25;67.88;101718.94;10515539;28;20036;-67
2023/12/18 03:47:30;;;;;;;26.02;2.13;;;;;;;3.27;67.98;101716.34;10495061;28;20507;-67
2023/12/18 03:52:32;;;;;;;3.55;1.67;;;;;;;3.08;68.06;101710.31;10514283;28;20101;-68
2023/12/18 03:57:34;;;;;;;3.50;1.70;;;;;;;3.18;68.13;101717.22;10514147;28;20123;-68
2023/12/18 04:02:36;;;;;;;8.68;2.42;;;;;;;3.28;68.00;101703.41;10514189;28;20425;-68
2023/12/18 04:07:38;;;;;;;31.38;2.63;;;;;;;3.17;68.15;101702.56;10516342;28;20399;-67
2023/12/18 04:12:41;;;;;;;9.48;1.63;;;;;;;3.01;68.34;101693.97;10516228;28;20048;-67
2023/12/18 04:17:43;;;;;;;9.77;2.20;;;;;;;3.04;68.50;101696.56;10515179;28;20036;-67
2023/12/18 04:22:45;;;;;;;5.93;2.05;;;;;;;3.20;68.33;101704.28;10515159;28;20044;-67
2023/12/18 04:27:47;;;;;;;2.40;1.60;;;;;;;3.15;67.95;101693.09;10514887;28;20058;-67
2023/12/18 04:32:49;;;;;;;4.97;1.50;;;;;;;3.10;68.14;101700.84;10515691;28;20075;-67
2023/12/18 04:37:51;;;;;;;7.47;1.83;;;;;;;3.11;68.02;101693.97;10538634;27;20406;-67
2023/12/18 04:42:54;;;;;;;2.33;1.50;;;;;;;3.02;68.16;101685.34;10522253;28;20044;-67
2023/12/18 04:47:56;;;;;;;2.40;1.45;;;;;;;2.98;68.06;101690.53;10504493;28;20135;-67
2023/12/18 04:52:58;;;;;;;2.50;1.30;;;;;;;2.81;68.33;101689.66;10522347;28;20048;-67
2023/12/18 04:58:00;;;;;;;28.38;2.33;;;;;;;2.85;67.94;101681.03;10523293;28;20052;-67
2023/12/18 05:03:02;;;;;;;13.50;2.03;;;;;;;2.80;68.07;101673.31;10522361;28;20140;-66
2023/12/18 05:08:04;;;;;;;63.15;2.53;;;;;;;2.72;67.85;101680.22;10503893;28;20555;-67
2023/12/18 05:13:07;;;;;;;4.20;1.42;;;;;;;2.70;68.14;101671.56;10504512;28;20059;-67
2023/12/18 05:18:09;;;;;;;14.82;1.80;;;;;;;2.76;68.31;101673.31;10522850;28;20039;-67
2023/12/18 05:23:11;;;;;;;5.88;1.27;;;;;;;2.72;67.65;101672.47;10487700;28;20504;-66
2023/12/18 05:28:13;;;;;;;2.67;1.33;;;;;;;2.58;67.93;101674.16;10502721;28;20055;-68
2023/12/18 05:33:15;;;;;;;9.20;2.55;;;;;;;2.50;67.97;101657.81;10503494;28;20052;-67
2023/12/18 05:38:17;;;;;;;4.05;1.83;;;;;;;2.45;68.23;101667.28;10521636;28;20412;-67
2023/12/18 05:43:19;;;;;;;5.93;1.60;;;;;;;2.60;68.02;101667.28;10522657;28;20072;-68
2023/12/18 05:48:21;;;;;;;23.08;2.10;;;;;;;2.63;67.77;101676.75;10497058;28;20420;-67
2023/12/18 05:53:24;;;;;;;22.73;1.88;;;;;;;2.69;67.73;101663.84;10519470;28;20855;-68
2023/12/18 05:58:26;;;;;;;50.45;2.17;;;;;;;2.57;67.88;101669.00;10520610;28;20101;-67
2023/12/18 06:03:27;;;;;;;2.28;1.38;;;;;;;2.45;68.31;101672.44;10500852;28;20147;-66
2023/12/18 06:08:30;;;;;;;5.47;1.42;;;;;;;2.32;67.93;101662.94;10517233;28;20028;-67
2023/12/18 06:13:32;;;;;;;47.30;2.28;;;;;;;2.27;68.21;101675.00;10518947;28;20048;-67
2023/12/18 06:18:34;;;;;;;12.55;2.20;;;;;;;2.20;67.83;101676.72;10519238;28;20130;-66
2023/12/18 06:23:36;;;;;;;8.88;2.05;;;;;;;2.12;68.00;101667.22;10519969;28;20040;-66
2023/12/18 06:28:38;;;;;;;3.75;1.60;;;;;;;2.01;68.12;101669.78;10519583;28;20056;-66
2023/12/18 06:33:41;;;;;;;5.45;1.70;;;;;;;1.86;68.45;101674.03;10516626;28;21294;-68
2023/12/18 06:38:44;;;;;;;16.02;2.22;;;;;;;1.99;68.48;101675.81;10501421;28;20040;-68
2023/12/18 06:43:46;;;;;;;2.45;1.42;;;;;;;1.83;68.51;101692.94;10519287;28;20042;-67
2023/12/18 06:48:49;;;;;;;9.80;1.83;;;;;;;1.86;68.00;101695.53;10514773;28;20538;-68
2023/12/18 06:53:51;;;;;;;6.68;1.98;;;;;;;2.03;68.75;101693.84;10506873;28;20522;-68
2023/12/18 06:58:53;;;;;;;2.53;1.35;;;;;;;2.23;68.34;101691.34;10478546;28;20101;-68
2023/12/18 07:03:56;;;;;;;10.07;2.45;;;;;;;1.92;68.37;101699.84;10508957;28;20440;-68
2023/12/18 07:08:58;;;;;;;3.10;1.77;;;;;;;1.98;68.74;101692.13;10512603;28;20396;-68
2023/12/18 07:14:00;;;;;;;6.03;2.05;;;;;;;1.98;68.43;101703.31;10512072;28;20139;-68
2023/12/18 07:19:02;;;;;;;3.53;1.98;;;;;;;2.12;68.13;101695.59;10494921;28;20830;-68
2023/12/18 07:24:04;;;;;;;8.57;2.90;;;;;;;2.07;68.25;101699.91;10495785;28;20085;-68
2023/12/18 07:29:10;;;;;;;6.03;2.55;;;;;;;2.11;68.09;101699.91;10494814;28;20313;-68
2023/12/18 07:34:12;;;;;;;3.50;1.65;;;;;;;2.28;67.97;101687.03;10512492;28;20052;-68
2023/12/18 07:39:14;;;;;;;3.58;1.83;;;;;;;2.22;67.86;101700.81;10512164;28;20036;-68
2023/12/18 07:44:16;;;;;;;4.03;2.30;;;;;;;2.14;67.69;101704.22;10494776;28;20385;-68
2023/12/18 07:49:18;;;;;;;8.68;2.28;;;;;;;2.02;67.51;101705.06;10510688;28;20133;-69
2023/12/18 07:54:21;;;;;;;2.22;1.63;;;;;;;1.74;68.20;101712.69;10510140;28;20052;-68
2023/12/18 07:59:23;;;;;;;8.73;1.98;;;;;;;1.73;68.11;101709.22;10510896;28;20752;-69
2023/12/18 08:04:25;;;;;;;2.63;1.60;;;;;;;1.98;67.66;101707.59;10468306;28;20047;-68
2023/12/18 08:09:27;;;;;;;5.63;2.30;;;;;;;2.18;67.83;101690.47;10508948;28;20074;-69
2023/12/18 08:14:29;;;;;;;5.55;2.10;;;;;;;2.35;67.54;101693.94;10509799;28;20922;-68
2023/12/18 08:19:31;;;;;;;9.45;2.53;;;;;;;2.29;67.14;101696.53;10491277;28;20051;-68
2023/12/18 08:24:33;;;;;;;6.38;2.20;;;;;;;2.27;67.50;101690.50;10507515;28;20044;-68
2023/12/18 08:29:38;;;;;;;20.75;2.53;;;;;;;2.44;67.37;101685.38;10491110;28;20036;-68
2023/12/18 08:34:40;;;;;;;7.22;2.35;;;;;;;2.47;67.24;101695.69;10505419;28;20505;-69
2023/12/18 08:39:42;;;;;;;9.07;2.28;;;;;;;2.52;67.39;101691.41;10490020;28;20118;-68
2023/12/18 08:44:45;;;;;;;47.20;3.50;;;;;;;2.56;67.20;101686.22;10509309;28;20044;-68
2023/12/18 08:49:47;;;;;;;3.33;1.80;;;;;;;2.63;66.72;101684.50;10507062;28;20048;-68
2023/12/18 08:54:49;;;;;;;6.28;2.50;;;;;;;2.66;66.46;101682.75;10503787;28;20105;-68
2023/12/18 08:59:51;;;;;;;2.70;1.55;;;;;;;2.80;66.76;101677.63;10506700;28;20074;-68
2023/12/18 09:04:53;;;;;;;12.27;2.40;;;;;;;3.02;66.41;101669.84;10508219;28;20044;-67
2023/12/18 09:09:55;;;;;;;6.60;2.00;;;;;;;3.04;66.30;101675.88;10506585;28;20097;-69
2023/12/18 09:14:57;;;;;;;9.15;2.13;;;;;;;3.12;66.29;101675.84;10488224;28;20052;-68
2023/12/18 09:19:59;;;;;;;4.55;2.20;;;;;;;2.92;65.42;101687.94;10505805;28;20388;-68
2023/12/18 09:25:03;;;;;;;7.30;2.08;;;;;;;2.85;65.93;101692.25;10498094;28;20048;-69
2023/12/18 09:30:07;;;;;;;4.47;1.95;;;;;;;3.09;65.90;101695.69;10467579;28;20120;-69
2023/12/18 09:35:11;;;;;;;3.70;1.70;;;;;;;3.18;65.86;101690.50;10472055;28;20055;-68
2023/12/18 09:40:13;;;;;;;40.83;4.22;;;;;;;3.32;65.20;101692.19;10514078;28;20183;-70
2023/12/18 09:45:15;;;;;;;59.80;4.80;;;;;;;3.05;64.98;101689.63;10514719;28;20052;-69
2023/12/18 09:50:18;;;;;;;20.13;4.20;;;;;;;2.81;65.58;101702.59;10513320;28;20048;-69
2023/12/18 09:55:21;;;;;;;5.18;2.10;;;;;;;3.07;65.94;101689.66;10509779;28;20121;-69
2023/12/18 10:00:24;;;;;;;7.32;2.70;;;;;;;3.23;65.90;101678.44;10495293;28;20040;-69
2023/12/18 10:05:26;;;;;;;12.20;2.97;;;;;;;3.38;64.94;101662.84;10495767;28;20561;-68
2023/12/18 10:10:29;;;;;;;5.93;2.47;;;;;;;2.95;65.96;101654.34;10494446;28;20468;-69
2023/12/18 10:15:32;;;;;;;10.13;3.90;;;;;;;3.32;65.59;101648.22;10522345;28;20051;-68
2023/12/18 10:20:35;;;;;;;7.85;2.85;;;;;;;3.40;65.32;101638.72;10498944;28;20044;-68
2023/12/18 10:25:37;;;;;;;30.73;3.17;;;;;;;3.16;65.31;101641.38;10492631;28;20192;-68
2023/12/18 10:30:40;;;;;;;10.00;2.65;;;;;;;3.06;65.12;101639.69;10489128;28;20036;-69
2023/12/18 10:35:43;;;;;;;80.57;3.58;;;;;;;2.78;65.21;101646.63;10501168;28;20036;-69
2023/12/18 10:40:45;;;;;;;4.10;2.42;;;;;;;2.69;65.70;101631.13;10483029;28;20052;-69
2023/12/18 10:45:49;;;;;;;4.82;2.40;;;;;;;2.72;65.53;101638.00;10506588;28;20059;-69
2023/12/18 10:50:55;;;;;;;10.80;2.67;;;;;;;2.99;65.56;101633.66;10504512;28;20447;-69
2023/12/18 10:55:59;;;;;;;5.78;2.28;;;;;;;2.87;65.07;101636.25;10495618;28;20052;-69
2023/12/18 11:01:05;;;;;;;4.70;2.30;;;;;;;2.93;65.22;101632.81;10505679;28;20531;-69
2023/12/18 11:06:10;;;;;;;7.85;3.28;;;;;;;3.03;65.96;101624.16;10503356;28;20393;-69
2023/12/18 11:11:13;;;;;;;9.18;2.28;;;;;;;3.32;65.38;101616.34;10486318;28;20189;-69
2023/12/18 11:16:28;;;;;;;8.63;2.30;;;;;;;3.56;64.84;101605.88;10511636;28;20052;-69
2023/12/18 11:21:33;;;;;;;6.63;2.90;;;;;;;3.72;64.32;101598.03;10509946;28;20050;-69
2023/12/18 11:26:38;;;;;;;4.88;2.30;;;;;;;3.81;64.80;101590.25;10512740;28;20040;-69
2023/12/18 11:31:40;;;;;;;4.15;2.20;;;;;;;3.87;64.33;101586.78;10509637;28;20496;-69
2023/12/18 11:36:43;;;;;;;11.27;2.97;;;;;;;3.62;64.25;101582.59;10493466;28;20512;-69
2023/12/18 11:41:45;;;;;;;7.82;2.85;;;;;;;3.66;64.63;101571.38;10509315;28;20138;-69
2023/12/18 11:46:50;;;;;;;22.08;2.95;;;;;;;3.64;64.61;101562.75;10510750;28;20048;-69
2023/12/18 11:51:52;;;;;;;8.75;2.40;;;;;;;3.49;64.63;101553.34;10509360;28;20401;-69
2023/12/18 11:56:55;;;;;;;13.77;2.63;;;;;;;3.42;64.43;101538.72;10500520;28;20040;-69
2023/12/18 12:01:58;;;;;;;3.88;2.30;;;;;;;3.24;64.85;101543.09;10503608;28;20109;-69
2023/12/18 12:07:00;;;;;;;8.82;2.70;;;;;;;3.18;65.17;101532.78;10508185;28;20063;-69
2023/12/18 12:12:02;;;;;;;16.77;3.40;;;;;;;3.38;64.83;101533.56;10491641;28;20488;-69
2023/12/18 12:17:05;;;;;;;7.20;2.45;;;;;;;3.19;64.53;101529.34;10476816;28;20040;-69
2023/12/18 12:22:09;;;;;;;5.20;2.58;;;;;;;3.25;65.07;101519.84;10508579;28;20055;-69
2023/12/18 12:27:11;;;;;;;5.60;2.92;;;;;;;3.31;64.72;101511.19;10509902;28;20305;-68
2023/12/18 12:32:14;;;;;;;8.13;2.90;;;;;;;3.32;65.02;101508.59;10490782;28;20504;-69
2023/12/18 12:37:17;;;;;;;4.10;2.28;;;;;;;3.41;64.76;101500.81;10465551;28;20134;-69
2023/12/18 12:42:20;;;;;;;44.17;2.63;;;;;;;3.28;64.83;101493.97;10464113;28;20280;-69
2023/12/18 12:47:22;;;;;;;5.15;2.65;;;;;;;3.33;65.73;101479.31;10467480;28;20047;-69
2023/12/18 12:52:28;;;;;;;9.35;3.17;;;;;;;3.41;64.68;101476.66;10460948;28;20621;-69
2023/12/18 12:57:30;;;;;;;24.27;4.85;;;;;;;3.40;65.23;101473.22;10469561;28;20047;-69
2023/12/18 13:02:33;;;;;;;35.50;3.28;;;;;;;3.47;65.40;101461.09;10474448;28;20070;-69
2023/12/18 13:07:35;;;;;;;6.90;2.88;;;;;;;3.77;65.53;101455.72;10475621;28;20056;-69
2023/12/18 13:12:37;;;;;;;33.35;3.80;;;;;;;3.69;64.69;101452.31;10471574;28;20185;-69
2023/12/18 13:17:39;;;;;;;20.00;3.83;;;;;;;3.67;64.93;101452.34;10475154;28;20338;-69
2023/12/18 13:22:43;;;;;;;13.25;3.55;;;;;;;3.48;65.46;101453.31;10472102;28;20405;-68
2023/12/18 13:27:45;;;;;;;10.63;3.88;;;;;;;3.58;65.76;101448.94;10472874;28;20202;-69
2023/12/18 13:32:47;;;;;;;15.10;3.55;;;;;;;3.71;65.41;101445.41;10505309;28;20052;-68
2023/12/18 13:37:51;;;;;;;9.13;2.88;;;;;;;3.49;65.33;101439.53;10509517;28;20106;-68
2023/12/18 13:42:53;;;;;;;13.82;3.97;;;;;;;3.33;65.55;101437.06;10497428;28;20046;-68
2023/12/18 13:47:57;;;;;;;7.55;2.90;;;;;;;3.26;65.90;101435.38;10516091;28;20068;-68
2023/12/18 13:53:00;;;;;;;45.35;4.07;;;;;;;3.38;65.72;101445.63;10507856;28;20565;-69
2023/12/18 13:58:02;;;;;;;8.75;3.05;;;;;;;3.51;66.29;101431.75;10507789;28;20531;-69
2023/12/18 14:03:06;;;;;;;14.68;4.53;;;;;;;3.56;65.82;101424.81;10510734;28;20066;-69
2023/12/18 14:08:08;;;;;;;14.27;4.35;;;;;;;3.50;65.87;101420.56;10493841;28;20074;-69
2023/12/18 14:13:10;;;;;;;12.02;3.08;;;;;;;3.46;65.91;101423.16;10490317;28;20087;-69
2023/12/18 14:18:13;;;;;;;12.52;2.75;;;;;;;3.56;66.08;101422.22;10510537;28;20052;-69
2023/12/18 14:23:17;;;;;;;45.65;3.60;;;;;;;3.46;65.56;101416.28;10491867;28;20109;-69
2023/12/18 14:28:20;;;;;;;14.68;3.33;;;;;;;3.38;66.34;101420.63;10512354;28;20367;-68
2023/12/18 14:33:22;;;;;;;8.32;3.55;;;;;;;3.50;66.42;101410.22;10510929;28;20044;-69
2023/12/18 14:38:25;;;;;;;58.70;4.32;;;;;;;3.53;65.53;101410.19;10507871;28;20105;-69
2023/12/18 14:43:28;;;;;;;6.32;3.22;;;;;;;3.19;66.25;101413.03;10477090;28;20421;-68
2023/12/18 14:48:30;;;;;;;5.03;2.28;;;;;;;3.20;66.08;101407.84;10488509;28;20051;-69
2023/12/18 14:53:37;;;;;;;5.28;2.33;;;;;;;3.28;66.37;101411.22;10511413;28;20051;-69
2023/12/18 14:58:39;;;;;;;73.65;3.20;;;;;;;3.27;65.96;101406.94;10508798;28;20400;-69
2023/12/18 15:03:41;;;;;;;6.30;2.42;;;;;;;3.07;65.82;101416.53;10488607;28;20113;-69
2023/12/18 15:08:44;;;;;;;3.50;2.15;;;;;;;2.95;66.37;101416.59;10506676;28;20048;-69
2023/12/18 15:13:46;;;;;;;7.72;2.65;;;;;;;2.95;66.07;101420.03;10490646;28;20052;-69
2023/12/18 15:18:48;;;;;;;56.08;3.95;;;;;;;2.89;66.51;101430.41;10507992;28;20051;-69
2023/12/18 15:23:52;;;;;;;55.17;4.22;;;;;;;2.90;66.86;101413.19;10510075;28;20032;-69
2023/12/18 15:28:54;;;;;;;8.50;2.78;;;;;;;2.83;67.38;101407.19;10505211;28;20101;-68
2023/12/18 15:33:56;;;;;;;12.73;4.05;;;;;;;2.85;66.79;101408.03;10509461;28;20381;-68
2023/12/18 15:38:58;;;;;;;11.25;3.20;;;;;;;2.43;67.61;101428.88;10523925;28;20516;-69
2023/12/18 15:44:00;;;;;;;21.27;4.28;;;;;;;2.56;67.64;101409.03;10505974;28;20575;-69
2023/12/18 15:49:02;;;;;;;8.25;2.85;;;;;;;2.77;67.37;101378.81;10485219;28;20082;-69
2023/12/18 15:54:05;;;;;;;7.15;2.45;;;;;;;2.74;67.20;101396.03;10522717;28;20060;-68
2023/12/18 15:59:07;;;;;;;6.35;2.03;;;;;;;2.64;67.20;101391.78;10495844;28;20700;-68
2023/12/18 16:04:11;;;;;;;94.50;5.15;;;;;;;2.69;66.98;101369.38;10453569;28;20040;-68
2023/12/18 16:09:13;;;;;;;6.25;2.83;;;;;;;2.68;66.88;101393.50;10501008;28;20048;-69
2023/12/18 16:14:15;;;;;;;20.00;3.67;;;;;;;2.60;67.19;101382.34;10490934;28;20126;-67
2023/12/18 16:19:17;;;;;;;6.60;3.42;;;;;;;2.55;67.16;101410.75;10511164;28;20043;-66
2023/12/18 16:24:19;;;;;;;18.75;3.05;;;;;;;2.65;67.30;101398.66;10508951;28;20093;-67
2023/12/18 16:29:21;;;;;;;4.22;2.13;;;;;;;2.75;67.22;101410.66;10506506;28;20040;-66
2023/12/18 16:34:26;;;;;;;4.32;2.38;;;;;;;2.80;66.89;101386.53;10519860;28;20510;-66
2023/12/18 16:39:28;;;;;;;18.55;2.78;;;;;;;2.52;66.80;101374.59;10518359;28;20174;-67
2023/12/18 16:44:30;;;;;;;8.52;2.83;;;;;;;2.49;67.10;101371.19;10513824;28;20047;-67
2023/12/18 16:49:32;;;;;;;24.17;3.60;;;;;;;2.61;67.11;101353.91;10515580;28;20514;-67
2023/12/18 16:54:34;;;;;;;6.15;2.83;;;;;;;2.42;66.44;101354.84;10513098;28;20044;-67
2023/12/18 16:59:37;;;;;;;14.85;2.60;;;;;;;1.95;66.78;101359.31;10477195;28;20440;-66
2023/12/18 17:04:39;;;;;;;89.28;3.95;;;;;;;1.81;66.91;101358.47;10494045;28;20068;-68
2023/12/18 17:09:41;;;;;;;10.27;2.90;;;;;;;1.88;67.30;101378.22;10512117;28;20787;-68
2023/12/18 17:14:50;;;;;;;58.60;4.28;;;;;;;2.04;67.82;101385.94;10515217;28;20047;-67
2023/12/18 17:19:54;;;;;;;6.25;2.60;;;;;;;2.27;67.33;101361.78;10513851;28;20054;-67
2023/12/18 17:24:58;;;;;;;7.70;3.40;;;;;;;2.25;67.32;101345.47;10515132;28;20522;-67
2023/12/18 17:30:00;;;;;;;7.75;2.90;;;;;;;2.23;67.59;101337.72;10496412;28;20407;-67
2023/12/18 17:35:03;;;;;;;6.28;2.53;;;;;;;2.17;67.33;101337.75;10497414;28;20052;-67
2023/12/18 17:40:07;;;;;;;8.52;3.70;;;;;;;1.95;67.38;101336.09;10492753;28;20631;-66
2023/12/18 17:45:10;;;;;;;7.70;2.60;;;;;;;2.04;67.39;101336.94;10493458;28;20128;-67
2023/12/18 17:50:13;;;;;;;5.97;2.85;;;;;;;1.97;67.21;101331.78;10512587;28;20551;-67
2023/12/18 17:55:16;;;;;;;44.92;3.97;;;;;;;1.89;67.10;101333.53;10451800;28;20055;-67
2023/12/18 18:00:19;;;;;;;8.95;3.40;;;;;;;1.84;67.04;101327.50;10493509;28;20055;-68
2023/12/18 18:05:23;;;;;;;7.15;3.13;;;;;;;2.00;67.46;101321.44;10493667;28;20079;-67
2023/12/18 18:10:26;;;;;;;31.05;3.28;;;;;;;2.04;68.07;101303.38;10510308;28;20055;-67
2023/12/18 18:15:29;;;;;;;9.82;3.30;;;;;;;1.72;67.37;101312.94;10507371;28;20418;-65
2023/12/18 18:20:31;;;;;;;7.38;3.38;;;;;;;1.61;67.55;101314.66;10510968;28;20040;-68
2023/12/18 18:25:35;;;;;;;29.42;4.40;;;;;;;1.58;67.60;101308.66;10511652;28;20310;-67
2023/12/18 18:30:40;;;;;;;17.25;4.95;;;;;;;1.52;67.77;101316.41;10502891;28;20063;-67
2023/12/18 18:35:44;;;;;;;6.03;3.83;;;;;;;1.73;68.20;101300.88;10492640;28;20051;-67
2023/12/18 18:40:47;;;;;;;7.07;2.97;;;;;;;1.85;67.71;101290.53;10488335;28;20055;-66
2023/12/18 18:45:49;;;;;;;44.10;4.03;;;;;;;1.73;67.64;101283.69;10490995;28;20047;-65
2023/12/18 18:50:51;;;;;;;19.25;3.72;;;;;;;1.78;67.85;101283.69;10508195;28;20047;-65
2023/12/18 18:55:54;;;;;;;7.82;3.10;;;;;;;1.67;67.45;101285.41;10507069;28;20144;-65
2023/12/18 19:00:57;;;;;;;34.42;4.40;;;;;;;1.44;67.50;101306.09;10502900;28;20212;-65
2023/12/18 19:06:00;;;;;;;10.90;3.75;;;;;;;1.46;68.16;101322.44;10469090;28;20055;-66
2023/12/18 19:11:03;;;;;;;26.65;3.90;;;;;;;1.69;67.49;101338.72;10503547;28;20071;-66
2023/12/18 19:16:05;;;;;;;39.00;4.63;;;;;;;1.82;67.60;101340.41;10508569;28;20311;-65
2023/12/18 19:21:07;;;;;;;4.82;2.85;;;;;;;1.64;67.25;101345.59;10488581;28;20039;-65
2023/12/18 19:26:09;;;;;;;8.02;3.45;;;;;;;1.76;67.19;101337.00;10508782;28;20044;-67
2023/12/18 19:31:11;;;;;;;32.90;5.78;;;;;;;1.49;66.92;101355.91;10507263;28;20061;-65
2023/12/18 19:36:16;;;;;;;5.95;2.78;;;;;;;1.16;67.49;101373.94;10509387;28;20056;-65
2023/12/18 19:41:19;;;;;;;11.25;3.35;;;;;;;1.41;68.32;101393.72;10507938;28;20164;-66
2023/12/18 19:46:21;;;;;;;14.15;3.35;;;;;;;1.67;67.58;101361.06;10505527;28;20063;-66
2023/12/18 19:51:23;;;;;;;5.05;3.05;;;;;;;1.68;67.62;101341.28;10507975;28;20495;-66
2023/12/18 19:56:26;;;;;;;10.05;3.65;;;;;;;1.62;67.42;101315.53;10489422;28;20397;-66
2023/12/18 20:01:28;;;;;;;5.88;2.58;;;;;;;1.58;67.45;101294.06;10507564;28;20568;-67
2023/12/18 20:06:31;;;;;;;5.00;2.90;;;;;;;1.38;67.42;101268.28;10508358;28;20464;-65
2023/12/18 20:11:33;;;;;;;5.18;2.85;;;;;;;1.16;67.63;101288.91;10503313;28;20048;-67
2023/12/18 20:16:35;;;;;;;10.73;3.15;;;;;;;0.92;67.60;101294.06;10508668;28;20125;-66
2023/12/18 20:21:38;;;;;;;6.40;2.88;;;;;;;0.98;68.44;101302.66;10507349;28;20479;-67
2023/12/18 20:26:40;;;;;;;6.60;2.95;;;;;;;1.31;68.05;101300.09;10506525;28;20046;-66
2023/12/18 20:31:45;;;;;;;5.95;2.70;;;;;;;1.18;67.45;101300.94;10484861;28;20040;-66
2023/12/18 20:36:47;;;;;;;8.63;3.53;;;;;;;1.28;67.60;101270.84;10503291;28;20066;-66
2023/12/18 20:41:50;;;;;;;10.98;3.97;;;;;;;1.28;67.72;101264.00;10500303;28;20036;-67
2023/12/18 20:46:52;;;;;;;7.50;3.83;;;;;;;1.32;67.20;101255.41;10494764;28;20055;-66
2023/12/18 20:51:56;;;;;;;13.60;3.25;;;;;;;0.96;67.38;101247.69;10499724;28;20085;-66
2023/12/18 20:56:58;;;;;;;6.38;3.38;;;;;;;0.95;68.05;101238.25;10499056;28;20044;-66
2023/12/18 21:02:01;;;;;;;11.40;3.20;;;;;;;1.06;67.58;101233.97;10495525;28;20044;-66
2023/12/18 21:07:04;;;;;;;9.63;2.78;;;;;;;1.04;67.69;101227.09;10464155;28;20050;-66
2023/12/18 21:12:08;;;;;;;6.97;3.50;;;;;;;1.02;68.44;101224.50;10502807;28;20384;-65
2023/12/18 21:17:10;;;;;;;5.38;3.03;;;;;;;1.28;67.76;101235.66;10506150;28;20468;-66
2023/12/18 21:22:12;;;;;;;13.88;3.65;;;;;;;1.43;67.73;101236.47;10490623;28;20124;-65
2023/12/18 21:27:15;;;;;;;7.72;3.17;;;;;;;1.57;67.57;101245.91;10508012;28;20105;-66
2023/12/18 21:32:17;;;;;;;17.35;3.78;;;;;;;1.62;67.19;101233.00;10509825;28;20543;-66
2023/12/18 21:37:19;;;;;;;12.65;4.30;;;;;;;1.38;67.03;101232.19;10511548;28;20060;-66
2023/12/18 21:42:21;;;;;;;5.88;3.28;;;;;;;1.25;67.09;101222.78;10509762;28;20075;-66
2023/12/18 21:47:27;;;;;;;4.70;3.05;;;;;;;1.29;67.44;101197.84;10478589;28;20044;-66
2023/12/18 21:52:29;;;;;;;9.93;3.13;;;;;;;1.48;66.80;101194.38;10509738;28;20067;-66
2023/12/18 21:57:31;;;;;;;9.32;3.20;;;;;;;1.25;66.76;101199.59;10509313;28;20047;-66
2023/12/18 22:02:33;;;;;;;14.88;3.67;;;;;;;1.14;67.48;101218.47;10483459;28;20113;-65
2023/12/18 22:07:35;;;;;;;10.15;3.78;;;;;;;1.32;67.57;101216.75;10500061;28;20062;-65
2023/12/18 22:12:37;;;;;;;21.27;3.83;;;;;;;1.58;67.62;101232.16;10509839;28;20051;-65
2023/12/18 22:17:39;;;;;;;10.85;3.45;;;;;;;1.67;66.81;101234.69;10514212;28;20397;-68
2023/12/18 22:22:41;;;;;;;6.85;3.50;;;;;;;1.69;67.52;101245.00;10510879;28;20234;-66
2023/12/18 22:27:44;;;;;;;8.10;4.30;;;;;;;1.75;67.34;101243.28;10504331;28;20481;-67
2023/12/18 22:32:46;;;;;;;8.10;4.07;;;;;;;1.77;67.25;101244.13;10509490;28;20488;-67
2023/12/18 22:37:49;;;;;;;11.48;4.35;;;;;;;1.61;67.48;101228.69;10511625;28;20125;-67
2023/12/18 22:42:52;;;;;;;8.30;3.92;;;;;;;1.64;67.12;101202.94;10486859;28;20412;-67
2023/12/18 22:47:54;;;;;;;7.40;3.55;;;;;;;1.73;67.28;101197.72;10510910;28;20059;-66
2023/12/18 22:52:56;;;;;;;10.30;4.13;;;;;;;1.24;67.56;101235.66;10509656;28;20040;-67
2023/12/18 22:58:00;;;;;;;6.80;3.53;;;;;;;1.32;67.54;101227.06;10510832;28;20873;-66
2023/12/18 23:03:03;;;;;;;7.07;3.42;;;;;;;1.49;67.60;101200.38;10507848;28;20043;-66
2023/12/18 23:08:05;;;;;;;5.85;3.35;;;;;;;1.47;67.53;101168.59;10490708;28;20028;-65
2023/12/18 23:13:07;;;;;;;8.05;3.83;;;;;;;1.53;67.21;101133.34;10508413;28;20036;-66
2023/12/18 23:18:10;;;;;;;7.80;4.03;;;;;;;1.18;67.11;101127.44;10492296;28;20279;-67